createdAt,value
2018-12-31T00:02:29.591Z,7.30
2018-12-31T00:05:00.627Z,7.30
2018-12-31T00:07:31.621Z,7.20
2018-12-31T00:10:03.173Z,7.20
2018-12-31T00:12:34.762Z,7.20
2018-12-31T00:15:06.705Z,7.20
2018-12-31T00:17:37.719Z,7.20
2018-12-31T00:20:09.336Z,7.20
2018-12-31T00:22:40.924Z,7.20
2018-12-31T00:25:13.071Z,7.10
2018-12-31T00:27:44.649Z,7.20
2018-12-31T00:30:16.521Z,7.20
2018-12-31T00:32:48.097Z,7.20
2018-12-31T00:35:19.750Z,7.20
2018-12-31T00:37:51.111Z,7.20
2018-12-31T00:40:22.445Z,7.20
2018-12-31T00:42:59.000Z,7.20
2018-12-31T00:45:27.908Z,7.10
2018-12-31T00:47:58.909Z,7.10
2018-12-31T00:50:30.293Z,7.10
2018-12-31T00:53:01.602Z,7.00
2018-12-31T00:55:34.944Z,7.10
2018-12-31T00:58:06.722Z,7.10
2018-12-31T01:00:38.648Z,7.10
2018-12-31T01:03:10.822Z,7.10
2018-12-31T01:05:42.684Z,7.10
2018-12-31T01:08:14.492Z,7.10
2018-12-31T01:10:46.973Z,7.20
2018-12-31T01:13:18.565Z,7.20
2018-12-31T01:15:49.590Z,7.10
2018-12-31T01:18:20.920Z,7.10
2018-12-31T01:20:52.491Z,7.00
2018-12-31T01:23:24.369Z,7.10
2018-12-31T01:25:56.246Z,7.10
2018-12-31T01:28:27.839Z,7.10
2018-12-31T01:30:59.415Z,7.10
2018-12-31T01:33:31.192Z,7.10
2018-12-31T01:36:02.498Z,7.10
2018-12-31T01:38:34.047Z,7.00
2018-12-31T01:41:05.062Z,7.00
2018-12-31T01:43:37.137Z,7.00
2018-12-31T01:46:09.059Z,7.00
2018-12-31T01:48:41.941Z,7.00
2018-12-31T01:51:13.282Z,7.10
2018-12-31T01:53:45.369Z,7.10
2018-12-31T01:56:17.309Z,7.10
2018-12-31T01:58:49.046Z,7.10
2018-12-31T02:01:21.026Z,7.10
2018-12-31T02:03:52.340Z,7.10
2018-12-31T02:06:23.621Z,7.10
2018-12-31T02:08:55.713Z,7.10
2018-12-31T02:11:27.795Z,7.20
2018-12-31T02:13:58.795Z,7.30
2018-12-31T02:16:30.461Z,7.20
2018-12-31T02:19:02.311Z,7.20
2018-12-31T02:21:34.298Z,7.30
2018-12-31T02:24:06.188Z,7.20
2018-12-31T02:26:37.479Z,7.20
2018-12-31T02:29:09.342Z,7.20
2018-12-31T02:31:40.758Z,7.10
2018-12-31T02:34:12.403Z,7.10
2018-12-31T02:36:43.958Z,7.10
2018-12-31T02:39:15.300Z,7.10
2018-12-31T02:41:46.657Z,7.20
2018-12-31T02:44:18.191Z,7.20
2018-12-31T02:46:50.115Z,7.20
2018-12-31T02:49:21.748Z,7.20
2018-12-31T02:51:53.403Z,7.20
2018-12-31T02:54:25.495Z,7.20
2018-12-31T02:56:57.413Z,7.20
2018-12-31T02:59:28.756Z,7.20
2018-12-31T03:02:00.655Z,7.40
2018-12-31T03:04:32.282Z,7.40
2018-12-31T03:07:04.031Z,7.50
2018-12-31T03:09:35.802Z,7.60
2018-12-31T03:12:07.819Z,7.60
2018-12-31T03:14:39.874Z,7.70
2018-12-31T03:17:11.182Z,7.70
2018-12-31T03:19:43.269Z,7.80
2018-12-31T03:22:15.393Z,7.80
2018-12-31T03:24:47.062Z,7.80
2018-12-31T03:27:22.342Z,7.90
2018-12-31T03:29:52.225Z,7.90
2018-12-31T03:32:24.180Z,7.80
2018-12-31T03:34:56.447Z,7.80
2018-12-31T03:37:28.526Z,7.90
2018-12-31T03:39:59.571Z,7.80
2018-12-31T03:42:31.412Z,7.80
2018-12-31T03:45:03.187Z,7.80
2018-12-31T03:47:34.490Z,7.80
2018-12-31T03:50:06.611Z,7.70
2018-12-31T03:52:37.995Z,7.70
2018-12-31T03:55:09.271Z,7.70
2018-12-31T03:57:41.079Z,7.70
2018-12-31T04:00:12.655Z,7.80
2018-12-31T04:02:44.035Z,7.80
2018-12-31T04:05:15.794Z,7.80
2018-12-31T04:07:52.999Z,7.70
2018-12-31T04:10:21.250Z,7.70
2018-12-31T04:12:52.910Z,7.70
2018-12-31T04:15:24.662Z,7.70
2018-12-31T04:17:56.413Z,7.70
2018-12-31T04:20:27.973Z,7.70
2018-12-31T04:22:59.608Z,7.60
2018-12-31T04:25:31.260Z,7.60
2018-12-31T04:28:03.373Z,7.70
2018-12-31T04:30:35.319Z,7.70
2018-12-31T04:33:06.972Z,7.70
2018-12-31T04:35:38.596Z,7.70
2018-12-31T04:38:10.217Z,7.70
2018-12-31T04:40:41.830Z,7.70
2018-12-31T04:43:13.792Z,7.80
2018-12-31T04:45:45.307Z,7.80
2018-12-31T04:48:17.227Z,7.80
2018-12-31T04:50:49.076Z,7.90
2018-12-31T04:53:20.800Z,7.90
2018-12-31T04:55:52.042Z,7.80
2018-12-31T04:58:24.032Z,7.80
2018-12-31T05:00:55.588Z,7.80
2018-12-31T05:03:27.474Z,7.80
2018-12-31T05:05:59.237Z,7.80
2018-12-31T05:08:30.547Z,7.80
2018-12-31T05:11:01.569Z,7.80
2018-12-31T05:13:33.334Z,7.90
2018-12-31T05:16:04.851Z,7.90
2018-12-31T05:18:36.678Z,7.90
2018-12-31T05:21:08.299Z,7.90
2018-12-31T05:23:39.552Z,7.90
2018-12-31T05:26:10.579Z,7.90
2018-12-31T05:28:42.107Z,7.90
2018-12-31T05:31:13.670Z,7.90
2018-12-31T05:33:44.925Z,7.90
2018-12-31T05:36:16.571Z,7.90
2018-12-31T05:38:48.313Z,7.90
2018-12-31T05:41:19.907Z,7.80
2018-12-31T05:43:51.743Z,7.90
2018-12-31T05:46:23.314Z,7.90
2018-12-31T05:48:54.633Z,7.90
2018-12-31T05:51:26.388Z,7.90
2018-12-31T05:53:57.971Z,7.90
2018-12-31T05:56:29.633Z,7.90
2018-12-31T05:59:01.451Z,7.90
2018-12-31T06:01:33.250Z,7.90
2018-12-31T06:04:05.143Z,7.90
2018-12-31T06:06:37.072Z,7.90
2018-12-31T06:09:09.730Z,7.80
2018-12-31T06:11:41.298Z,7.80
2018-12-31T06:14:12.614Z,7.80
2018-12-31T06:16:44.651Z,7.90
2018-12-31T06:19:16.470Z,7.90
2018-12-31T06:21:47.597Z,7.90
2018-12-31T06:24:19.165Z,7.80
2018-12-31T06:26:50.793Z,7.80
2018-12-31T06:29:21.787Z,7.80
2018-12-31T06:31:53.407Z,7.80
2018-12-31T06:34:25.294Z,7.80
2018-12-31T06:36:57.021Z,7.80
2018-12-31T06:39:28.593Z,7.80
2018-12-31T06:42:00.364Z,7.80
2018-12-31T06:44:31.984Z,7.80
2018-12-31T06:47:03.753Z,7.80
2018-12-31T06:49:34.752Z,7.80
2018-12-31T06:52:06.665Z,7.80
2018-12-31T06:54:37.988Z,7.80
2018-12-31T06:57:09.753Z,7.80
2018-12-31T06:59:41.610Z,7.70
2018-12-31T07:02:13.264Z,7.70
2018-12-31T07:04:45.177Z,7.80
2018-12-31T07:07:16.956Z,7.80
2018-12-31T07:09:48.641Z,7.80
2018-12-31T07:12:20.296Z,7.80
2018-12-31T07:14:51.634Z,7.80
2018-12-31T07:17:26.050Z,7.70
2018-12-31T07:19:57.492Z,7.70
2018-12-31T07:22:29.069Z,7.70
2018-12-31T07:25:01.254Z,7.70
2018-12-31T07:27:32.524Z,7.70
2018-12-31T07:30:03.647Z,7.70
2018-12-31T07:32:35.460Z,7.80
2018-12-31T07:35:07.228Z,7.80
2018-12-31T07:37:39.212Z,7.80
2018-12-31T07:40:10.847Z,7.80
2018-12-31T07:42:42.503Z,7.80
2018-12-31T07:45:14.393Z,7.90
2018-12-31T07:47:46.004Z,7.90
2018-12-31T07:50:17.755Z,8.00
2018-12-31T07:52:49.424Z,8.00
2018-12-31T07:55:21.184Z,8.00
2018-12-31T07:57:52.435Z,8.00
2018-12-31T08:00:24.533Z,8.00
2018-12-31T08:02:56.460Z,8.10
2018-12-31T08:05:27.802Z,8.10
2018-12-31T08:07:59.333Z,8.10
2018-12-31T08:10:31.018Z,8.10
2018-12-31T08:13:02.647Z,8.10
2018-12-31T08:15:34.701Z,8.20
2018-12-31T08:18:06.818Z,8.20
2018-12-31T08:20:38.892Z,8.10
2018-12-31T08:23:10.721Z,8.10
2018-12-31T08:25:42.066Z,8.10
2018-12-31T08:28:13.721Z,8.10
2018-12-31T08:30:45.832Z,8.10
2018-12-31T08:33:16.857Z,8.20
2018-12-31T08:35:48.097Z,8.20
2018-12-31T08:38:19.127Z,8.20
2018-12-31T08:40:51.014Z,8.20
2018-12-31T08:43:22.604Z,8.20
2018-12-31T08:45:54.182Z,8.30
2018-12-31T08:48:25.832Z,8.30
2018-12-31T08:50:57.913Z,8.30
2018-12-31T08:53:29.442Z,8.30
2018-12-31T08:56:01.325Z,8.30
2018-12-31T08:58:33.147Z,8.30
2018-12-31T09:01:04.149Z,8.30
2018-12-31T09:03:36.021Z,8.30
2018-12-31T09:06:07.901Z,8.40
2018-12-31T09:08:40.065Z,8.40
2018-12-31T09:11:11.857Z,8.40
2018-12-31T09:13:44.147Z,8.40
2018-12-31T09:16:15.772Z,8.50
2018-12-31T09:18:47.434Z,8.50
2018-12-31T09:21:18.745Z,8.50
2018-12-31T09:23:50.335Z,8.50
2018-12-31T09:26:22.197Z,8.50
2018-12-31T09:28:54.141Z,8.50
2018-12-31T09:31:26.338Z,8.60
2018-12-31T09:33:58.534Z,8.60
2018-12-31T09:36:30.352Z,8.70
2018-12-31T09:39:01.843Z,8.70
2018-12-31T09:41:34.977Z,8.80
2018-12-31T09:44:06.602Z,8.90
2018-12-31T09:46:38.631Z,8.90
2018-12-31T09:49:10.694Z,8.90
2018-12-31T09:51:41.962Z,8.90
2018-12-31T09:54:13.561Z,9.00
2018-12-31T09:56:45.212Z,9.10
2018-12-31T09:59:17.451Z,9.10
2018-12-31T10:01:49.542Z,9.10
2018-12-31T10:04:21.598Z,9.20
2018-12-31T10:06:53.367Z,9.10
2018-12-31T10:09:25.027Z,9.10
2018-12-31T10:11:56.649Z,9.00
2018-12-31T10:14:28.388Z,9.10
2018-12-31T10:17:00.702Z,9.10
2018-12-31T10:19:32.442Z,9.10
2018-12-31T10:22:04.011Z,9.10
2018-12-31T10:24:35.932Z,9.00
2018-12-31T10:27:07.807Z,9.00
2018-12-31T10:29:39.698Z,9.10
2018-12-31T10:32:11.515Z,9.20
2018-12-31T10:34:43.082Z,9.20
2018-12-31T10:37:14.722Z,9.30
2018-12-31T10:39:46.061Z,9.20
2018-12-31T10:42:17.626Z,9.20
2018-12-31T10:44:49.423Z,9.20
2018-12-31T10:47:20.972Z,9.10
2018-12-31T10:49:52.538Z,9.20
2018-12-31T10:52:24.521Z,9.20
2018-12-31T10:54:55.526Z,9.30
2018-12-31T10:57:27.722Z,9.40
2018-12-31T10:59:59.571Z,9.30
2018-12-31T11:02:30.938Z,9.30
2018-12-31T11:05:01.951Z,9.30
2018-12-31T11:07:33.453Z,9.30
2018-12-31T11:10:05.995Z,9.30
2018-12-31T11:12:37.279Z,9.50
2018-12-31T11:15:08.623Z,9.50
2018-12-31T11:17:40.742Z,9.60
2018-12-31T11:20:12.379Z,9.60
2018-12-31T11:22:43.999Z,9.60
2018-12-31T11:25:15.882Z,9.70
2018-12-31T11:27:47.691Z,9.60
2018-12-31T11:30:19.273Z,9.70
2018-12-31T11:32:51.129Z,9.60
2018-12-31T11:35:22.933Z,9.60
2018-12-31T11:37:54.580Z,9.70
2018-12-31T11:40:26.442Z,9.70
2018-12-31T11:42:58.183Z,9.60
2018-12-31T11:45:29.451Z,9.70
2018-12-31T11:48:01.771Z,9.70
2018-12-31T11:50:33.569Z,9.60
2018-12-31T11:53:04.915Z,9.70
2018-12-31T11:55:36.281Z,9.60
2018-12-31T11:58:08.458Z,9.60
2018-12-31T12:00:40.202Z,9.70
2018-12-31T12:03:12.117Z,9.60
2018-12-31T12:05:43.699Z,9.70
2018-12-31T12:08:15.028Z,9.70
2018-12-31T12:10:46.419Z,9.70
2018-12-31T12:13:17.416Z,9.70
2018-12-31T12:15:49.526Z,9.70
2018-12-31T12:18:21.136Z,9.80
2018-12-31T12:20:53.982Z,9.70
2018-12-31T12:23:25.633Z,9.80
2018-12-31T12:25:57.447Z,9.70
2018-12-31T12:28:28.982Z,9.80
2018-12-31T12:31:00.863Z,9.80
2018-12-31T12:33:32.464Z,9.90
2018-12-31T12:36:04.026Z,9.80
2018-12-31T12:38:35.591Z,9.80
2018-12-31T12:41:07.912Z,9.80
2018-12-31T12:43:39.718Z,9.80
2018-12-31T12:46:11.815Z,9.80
2018-12-31T12:48:43.781Z,9.80
2018-12-31T12:51:15.803Z,9.80
2018-12-31T12:53:47.084Z,9.80
2018-12-31T12:56:18.769Z,9.80
2018-12-31T12:58:50.802Z,9.70
2018-12-31T13:01:21.818Z,9.70
2018-12-31T13:03:53.946Z,9.80
2018-12-31T13:06:25.254Z,9.80
2018-12-31T13:08:57.220Z,9.80
2018-12-31T13:11:28.530Z,9.90
2018-12-31T13:14:00.769Z,10.00
2018-12-31T13:16:32.396Z,10.10
2018-12-31T13:19:04.244Z,10.10
2018-12-31T13:21:36.391Z,10.10
2018-12-31T13:24:07.968Z,10.00
2018-12-31T13:26:43.559Z,10.10
2018-12-31T13:29:13.658Z,10.00
2018-12-31T13:31:44.954Z,10.00
2018-12-31T13:34:16.744Z,10.00
2018-12-31T13:36:48.364Z,10.00
2018-12-31T13:39:19.632Z,10.00
2018-12-31T13:41:51.659Z,10.00
2018-12-31T13:44:23.671Z,10.00
2018-12-31T13:46:54.975Z,10.00
2018-12-31T13:49:27.406Z,10.00
2018-12-31T13:51:59.014Z,10.00
2018-12-31T13:54:31.204Z,9.90
2018-12-31T13:57:02.835Z,9.90
2018-12-31T13:59:35.250Z,9.80
2018-12-31T14:02:06.882Z,9.70
2018-12-31T14:04:39.178Z,9.70
2018-12-31T14:07:11.052Z,9.70
2018-12-31T14:09:42.651Z,9.70
2018-12-31T14:12:14.242Z,9.70
2018-12-31T14:14:46.175Z,9.60
2018-12-31T14:17:17.706Z,9.60
2018-12-31T14:19:50.395Z,9.60
2018-12-31T14:22:21.949Z,9.50
2018-12-31T14:24:53.851Z,9.50
2018-12-31T14:27:25.579Z,9.50
2018-12-31T14:29:57.148Z,9.50
2018-12-31T14:32:29.189Z,9.50
2018-12-31T14:35:00.737Z,9.50
2018-12-31T14:37:33.710Z,9.40
2018-12-31T14:40:04.862Z,9.40
2018-12-31T14:42:36.201Z,9.40
2018-12-31T14:45:07.444Z,9.40
2018-12-31T14:47:39.638Z,9.40
2018-12-31T14:50:11.300Z,9.40
2018-12-31T14:52:42.947Z,9.40
2018-12-31T14:55:14.512Z,9.30
2018-12-31T14:57:45.921Z,9.40
2018-12-31T15:00:18.021Z,9.30
2018-12-31T15:02:50.158Z,9.40
2018-12-31T15:05:22.020Z,9.40
2018-12-31T15:07:53.915Z,9.30
2018-12-31T15:10:26.378Z,9.30
2018-12-31T15:12:57.679Z,9.30
2018-12-31T15:15:28.967Z,9.20
2018-12-31T15:18:00.303Z,9.20
2018-12-31T15:20:32.136Z,9.20
2018-12-31T15:23:04.404Z,9.20
2018-12-31T15:25:36.238Z,9.20
2018-12-31T15:28:07.517Z,9.20
2018-12-31T15:30:39.200Z,9.20
2018-12-31T15:33:11.034Z,9.20
2018-12-31T15:35:43.287Z,9.20
2018-12-31T15:38:14.284Z,9.20
2018-12-31T15:40:45.580Z,9.10
2018-12-31T15:43:17.186Z,8.90
2018-12-31T15:45:49.132Z,8.90
2018-12-31T15:48:20.764Z,8.80
2018-12-31T15:50:52.032Z,8.80
2018-12-31T15:53:23.595Z,8.80
2018-12-31T15:55:55.237Z,8.80
2018-12-31T15:58:26.794Z,8.80
2018-12-31T16:00:58.698Z,8.80
2018-12-31T16:03:30.444Z,8.80
2018-12-31T16:06:02.381Z,8.80
2018-12-31T16:08:33.913Z,8.90
2018-12-31T16:11:05.404Z,8.90
2018-12-31T16:13:36.713Z,8.90
2018-12-31T16:16:09.059Z,8.90
2018-12-31T16:18:40.793Z,8.90
2018-12-31T16:21:12.723Z,8.90
2018-12-31T16:23:44.161Z,8.90
2018-12-31T16:26:16.485Z,8.90
2018-12-31T16:28:48.058Z,8.90
2018-12-31T16:31:20.026Z,8.90
2018-12-31T16:33:51.851Z,8.90
2018-12-31T16:36:23.132Z,8.80
2018-12-31T16:38:54.697Z,8.70
2018-12-31T16:41:26.281Z,8.70
2018-12-31T16:43:58.077Z,8.70
2018-12-31T16:46:29.868Z,8.70
2018-12-31T16:49:02.142Z,8.60
2018-12-31T16:51:33.696Z,8.60
2018-12-31T16:54:05.760Z,8.60
2018-12-31T16:56:37.633Z,8.50
2018-12-31T16:59:09.553Z,8.50
2018-12-31T17:01:41.136Z,8.40
2018-12-31T17:04:12.786Z,8.40
2018-12-31T17:06:44.648Z,8.40
2018-12-31T17:09:17.128Z,8.40
2018-12-31T17:11:48.959Z,8.30
2018-12-31T17:14:20.526Z,8.30
2018-12-31T17:16:51.966Z,8.30
2018-12-31T17:19:23.664Z,8.30
2018-12-31T17:21:55.293Z,8.20
2018-12-31T17:24:26.643Z,8.20
2018-12-31T17:26:58.190Z,8.20
2018-12-31T17:29:29.521Z,8.30
2018-12-31T17:32:01.079Z,8.30
2018-12-31T17:34:33.256Z,8.30
2018-12-31T17:37:05.120Z,8.30
2018-12-31T17:39:36.547Z,8.40
2018-12-31T17:42:09.805Z,8.40
2018-12-31T17:44:41.419Z,8.40
2018-12-31T17:47:13.717Z,8.40
2018-12-31T17:49:45.315Z,8.40
2018-12-31T17:52:17.517Z,8.40
2018-12-31T17:54:49.154Z,8.40
2018-12-31T17:57:20.828Z,8.40
2018-12-31T17:59:53.980Z,8.30
2018-12-31T18:02:25.857Z,8.40
2018-12-31T18:04:57.211Z,8.40
2018-12-31T18:07:28.862Z,8.40
2018-12-31T18:10:01.033Z,8.40
2018-12-31T18:12:32.660Z,8.50
2018-12-31T18:15:04.608Z,8.50
2018-12-31T18:17:36.620Z,8.50
2018-12-31T18:20:09.892Z,8.50
2018-12-31T18:22:41.968Z,8.40
2018-12-31T18:25:13.322Z,8.40
2018-12-31T18:27:45.399Z,8.40
2018-12-31T18:30:17.036Z,8.40
2018-12-31T18:32:48.700Z,8.40
2018-12-31T18:35:20.559Z,8.40
2018-12-31T18:37:51.591Z,8.50
2018-12-31T18:40:23.000Z,8.50
2018-12-31T18:42:54.583Z,8.50
2018-12-31T18:45:26.653Z,8.50
2018-12-31T18:47:58.427Z,8.40
2018-12-31T18:50:30.058Z,8.40
2018-12-31T18:53:01.380Z,8.50
2018-12-31T18:55:33.281Z,8.50
2018-12-31T18:58:04.871Z,8.50
2018-12-31T19:00:36.384Z,8.50
2018-12-31T19:03:08.241Z,8.50
2018-12-31T19:05:39.860Z,8.50
2018-12-31T19:08:11.666Z,8.50
2018-12-31T19:10:42.924Z,8.50
2018-12-31T19:13:15.138Z,8.50
2018-12-31T19:15:46.522Z,8.40
2018-12-31T19:18:18.493Z,8.50
2018-12-31T19:20:50.157Z,8.40
2018-12-31T19:23:21.801Z,8.40
2018-12-31T19:25:53.951Z,8.40
2018-12-31T19:28:26.696Z,8.40
2018-12-31T19:30:58.365Z,8.60
2018-12-31T19:33:29.839Z,8.60
2018-12-31T19:36:01.385Z,8.70
2018-12-31T19:38:32.387Z,8.80
2018-12-31T19:41:04.100Z,8.90
2018-12-31T19:43:35.955Z,8.90
2018-12-31T19:46:07.175Z,8.90
2018-12-31T19:48:38.512Z,8.90
2018-12-31T19:51:10.159Z,8.80
2018-12-31T19:53:43.282Z,8.90
2018-12-31T19:56:14.827Z,8.90
2018-12-31T19:58:46.358Z,8.90
2018-12-31T20:01:18.310Z,8.90
2018-12-31T20:03:50.221Z,8.90
2018-12-31T20:06:21.548Z,8.90
2018-12-31T20:08:52.554Z,8.90
2018-12-31T20:11:24.648Z,8.90
2018-12-31T20:13:55.959Z,8.90
2018-12-31T20:16:28.697Z,9.00
2018-12-31T20:19:00.333Z,9.00
2018-12-31T20:21:31.957Z,9.00
2018-12-31T20:24:03.531Z,9.00
2018-12-31T20:26:35.268Z,9.00
2018-12-31T20:29:06.965Z,9.00
2018-12-31T20:31:38.195Z,9.10
2018-12-31T20:34:10.100Z,9.10
2018-12-31T20:36:41.524Z,9.10
2018-12-31T20:39:12.867Z,9.10
2018-12-31T20:41:43.863Z,9.10
2018-12-31T20:44:15.616Z,9.00
2018-12-31T20:46:47.205Z,9.00
2018-12-31T20:49:18.522Z,9.00
2018-12-31T20:51:50.056Z,9.00
2018-12-31T20:54:21.809Z,9.10
2018-12-31T20:56:53.290Z,9.10
2018-12-31T20:59:25.409Z,9.10
2018-12-31T21:01:56.995Z,9.10
2018-12-31T21:04:28.280Z,9.10
2018-12-31T21:06:59.830Z,9.20
2018-12-31T21:09:31.598Z,9.20
2018-12-31T21:12:03.522Z,9.20
2018-12-31T21:14:35.440Z,9.10
2018-12-31T21:17:07.371Z,9.10
2018-12-31T21:19:38.788Z,9.20
2018-12-31T21:22:10.677Z,9.20
2018-12-31T21:24:42.242Z,9.20
2018-12-31T21:27:14.401Z,9.20
2018-12-31T21:29:46.271Z,9.20
2018-12-31T21:32:18.123Z,9.20
2018-12-31T21:34:49.903Z,9.30
2018-12-31T21:37:21.523Z,9.30
2018-12-31T21:39:53.155Z,9.20
2018-12-31T21:42:24.793Z,9.20
2018-12-31T21:44:56.150Z,9.20
2018-12-31T21:47:27.152Z,9.20
2018-12-31T21:49:58.679Z,9.20
2018-12-31T21:52:30.431Z,9.20
2018-12-31T21:55:01.680Z,9.20
2018-12-31T21:57:34.016Z,9.20
2018-12-31T22:00:05.995Z,9.10
2018-12-31T22:02:37.325Z,9.10
2018-12-31T22:05:08.414Z,9.20
2018-12-31T22:07:40.020Z,9.20
2018-12-31T22:10:11.577Z,9.10
2018-12-31T22:12:43.574Z,9.10
2018-12-31T22:15:14.880Z,9.10
2018-12-31T22:17:46.218Z,9.20
2018-12-31T22:20:17.751Z,9.20
2018-12-31T22:22:49.044Z,9.30
2018-12-31T22:25:20.925Z,9.40
2018-12-31T22:27:52.880Z,9.40
2018-12-31T22:30:24.390Z,9.40
2018-12-31T22:32:55.989Z,9.30
2018-12-31T22:35:27.648Z,9.30
2018-12-31T22:37:59.583Z,9.20
2018-12-31T22:40:31.619Z,9.20
2018-12-31T22:43:03.397Z,9.20
2018-12-31T22:45:34.723Z,9.20
2018-12-31T22:48:06.655Z,9.20
2018-12-31T22:50:38.716Z,9.20
2018-12-31T22:53:10.775Z,9.10
2018-12-31T22:55:42.621Z,9.10
2018-12-31T22:58:14.636Z,9.10
2018-12-31T23:00:46.383Z,9.20
2018-12-31T23:03:17.905Z,9.20
2018-12-31T23:05:49.540Z,9.20
2018-12-31T23:08:21.615Z,9.30
2018-12-31T23:10:53.258Z,9.40
2018-12-31T23:13:24.426Z,9.40
2018-12-31T23:15:56.354Z,9.40
2018-12-31T23:18:28.331Z,9.30
2018-12-31T23:21:00.168Z,9.30
2018-12-31T23:23:31.448Z,9.20
2018-12-31T23:26:03.176Z,9.30
2018-12-31T23:28:35.055Z,9.20
2018-12-31T23:31:06.093Z,9.20
2018-12-31T23:33:38.217Z,9.20
2018-12-31T23:36:09.829Z,9.20
2018-12-31T23:38:41.502Z,9.20
2018-12-31T23:41:12.813Z,9.20
2018-12-31T23:43:44.468Z,9.30
2018-12-31T23:46:15.923Z,9.30
2018-12-31T23:48:47.981Z,9.30
2018-12-31T23:51:19.834Z,9.30
2018-12-31T23:53:51.417Z,9.30
2018-12-31T23:56:22.956Z,9.30
2018-12-31T23:58:54.788Z,9.30
